SWR035 LSGG-LEMH
Flight info
| Callsign | SWR035 |
|---|---|
| Flight time | 1h 9m |
| Altitude | 37000 |
| Route | BALSI1N BALSI DCT RETNO DCT TUPOX DCT MTG DCT DIVKO DCT VATIR DCT PIVUS DCT BODEQ DCT VERSO L16 SARGO SARGO5B |
| Aircraft | A220/M-VGDW/C |
Departure
| Time | 2026-04-22 18:30 |
|---|---|
| Airport | Geneva International Airport (LSGG) |
Arrival
| Time | 2026-04-22 19:39 |
|---|---|
| Airport | Menorca Airport (LEMH) |
| Time | Latitude | Longitude | Altitude | Speed | Heading |
|---|---|---|---|---|---|
| 2026-04-22 18:06 | 46.23060 | 6.10609 | 1391 ft | 0 kts | 133° |
| 2026-04-22 18:18 | 46.23064 | 6.10603 | 1391 ft | 4 kts | 135° |
| 2026-04-22 18:18 | 46.23084 | 6.10580 | 1389 ft | 4 kts | 160° |
| 2026-04-22 18:18 | 46.23108 | 6.10577 | 1389 ft | 4 kts | 210° |
| 2026-04-22 18:19 | 46.23115 | 6.10583 | 1387 ft | 4 kts | 224° |
| 2026-04-22 18:24 | 46.23110 | 6.10575 | 1367 ft | 7 kts | 224° |
| 2026-04-22 18:25 | 46.23066 | 6.10512 | 1391 ft | 9 kts | 225° |
| 2026-04-22 18:25 | 46.23026 | 6.10453 | 1391 ft | 8 kts | 225° |
| 2026-04-22 18:25 | 46.22991 | 6.10401 | 1391 ft | 7 kts | 225° |
| 2026-04-22 18:26 | 46.22958 | 6.10329 | 1390 ft | 1 kts | 270° |
| 2026-04-22 18:26 | 46.22996 | 6.10251 | 1389 ft | 16 kts | 314° |
| 2026-04-22 18:26 | 46.23042 | 6.10110 | 1391 ft | 13 kts | 243° |
| 2026-04-22 18:26 | 46.22972 | 6.10001 | 1390 ft | 18 kts | 223° |
| 2026-04-22 18:27 | 46.22878 | 6.09868 | 1391 ft | 17 kts | 225° |
| 2026-04-22 18:27 | 46.22799 | 6.09755 | 1391 ft | 14 kts | 225° |
| 2026-04-22 18:27 | 46.22736 | 6.09664 | 1401 ft | 11 kts | 225° |
| 2026-04-22 18:27 | 46.22687 | 6.09594 | 1391 ft | 8 kts | 225° |
| 2026-04-22 18:28 | 46.22638 | 6.09522 | 1391 ft | 13 kts | 225° |
| 2026-04-22 18:28 | 46.22572 | 6.09423 | 1391 ft | 12 kts | 234° |
| 2026-04-22 18:28 | 46.22549 | 6.09336 | 1400 ft | 8 kts | 255° |
| 2026-04-22 18:28 | 46.22541 | 6.09266 | 1391 ft | 6 kts | 266° |
| 2026-04-22 18:29 | 46.22544 | 6.09212 | 1391 ft | 5 kts | 288° |
| 2026-04-22 18:29 | 46.22557 | 6.09180 | 1388 ft | 8 kts | 300° |
| 2026-04-22 18:29 | 46.22610 | 6.09154 | 1392 ft | 12 kts | 7° |
| 2026-04-22 18:29 | 46.22697 | 6.09269 | 1393 ft | 40 kts | 50° |
| 2026-04-22 18:30 | 46.23133 | 6.09898 | 1397 ft | 139 kts | 46° |
| 2026-04-22 18:30 | 46.24877 | 6.12603 | 3243 ft | 201 kts | 47° |
| 2026-04-22 18:30 | 46.25863 | 6.14147 | 4609 ft | 215 kts | 47° |
| 2026-04-22 18:31 | 46.26881 | 6.15748 | 6158 ft | 216 kts | 47° |
| 2026-04-22 18:31 | 46.27905 | 6.17391 | 7402 ft | 238 kts | 49° |
| 2026-04-22 18:31 | 46.29089 | 6.19201 | 8677 ft | 252 kts | 42° |
| 2026-04-22 18:31 | 46.30437 | 6.20891 | 10208 ft | 261 kts | 40° |
| 2026-04-22 18:32 | 46.31879 | 6.22668 | 11274 ft | 286 kts | 43° |
| 2026-04-22 18:32 | 46.33076 | 6.25106 | 12280 ft | 313 kts | 69° |
| 2026-04-22 18:32 | 46.33290 | 6.28325 | 13373 ft | 337 kts | 98° |
| 2026-04-22 18:32 | 46.32368 | 6.31514 | 14466 ft | 358 kts | 125° |
| 2026-04-22 18:33 | 46.30585 | 6.33813 | 15490 ft | 374 kts | 150° |
| 2026-04-22 18:33 | 46.28997 | 6.34725 | 16216 ft | 383 kts | 167° |
| 2026-04-22 18:33 | 46.26345 | 6.34843 | 17306 ft | 392 kts | 192° |
| 2026-04-22 18:33 | 46.23925 | 6.33509 | 18363 ft | 397 kts | 213° |
| 2026-04-22 18:34 | 46.21635 | 6.31221 | 19336 ft | 404 kts | 223° |
| 2026-04-22 18:34 | 46.19479 | 6.28560 | 20336 ft | 410 kts | 227° |
| 2026-04-22 18:34 | 46.17375 | 6.25738 | 21463 ft | 416 kts | 230° |
| 2026-04-22 18:34 | 46.15361 | 6.22740 | 22708 ft | 415 kts | 237° |
| 2026-04-22 18:35 | 46.13597 | 6.19427 | 23863 ft | 418 kts | 241° |
| 2026-04-22 18:35 | 46.11743 | 6.16145 | 24822 ft | 429 kts | 236° |
| 2026-04-22 18:35 | 46.09765 | 6.12891 | 25837 ft | 431 kts | 238° |
| 2026-04-22 18:35 | 46.07898 | 6.09476 | 26793 ft | 437 kts | 238° |
| 2026-04-22 18:36 | 46.05878 | 6.06144 | 27713 ft | 444 kts | 236° |
| 2026-04-22 18:36 | 46.03904 | 6.02705 | 28631 ft | 450 kts | 236° |
| 2026-04-22 18:36 | 46.01404 | 5.99807 | 29491 ft | 477 kts | 216° |
| 2026-04-22 18:36 | 45.98199 | 5.98192 | 30311 ft | 503 kts | 196° |
| 2026-04-22 18:37 | 45.94636 | 5.97972 | 31001 ft | 521 kts | 183° |
| 2026-04-22 18:37 | 45.91027 | 5.98287 | 31633 ft | 529 kts | 181° |
| 2026-04-22 18:37 | 45.88538 | 5.98444 | 32039 ft | 529 kts | 186° |
| 2026-04-22 18:37 | 45.83646 | 5.98036 | 32789 ft | 537 kts | 187° |
| 2026-04-22 18:38 | 45.79886 | 5.97973 | 32872 ft | 539 kts | 187° |
| 2026-04-22 18:38 | 45.72402 | 5.97528 | 32894 ft | 540 kts | 186° |
| 2026-04-22 18:39 | 45.61177 | 5.96851 | 32946 ft | 536 kts | 189° |
| 2026-04-22 18:39 | 45.53685 | 5.96458 | 32957 ft | 537 kts | 189° |
| 2026-04-22 18:40 | 45.46259 | 5.95500 | 32959 ft | 534 kts | 192° |
| 2026-04-22 18:40 | 45.42611 | 5.94653 | 33245 ft | 526 kts | 199° |
| 2026-04-22 18:40 | 45.39081 | 5.93326 | 33750 ft | 526 kts | 201° |
| 2026-04-22 18:41 | 45.35524 | 5.92242 | 34215 ft | 531 kts | 195° |
| 2026-04-22 18:41 | 45.31920 | 5.91180 | 34654 ft | 526 kts | 200° |
| 2026-04-22 18:41 | 45.28358 | 5.89968 | 35066 ft | 526 kts | 197° |
| 2026-04-22 18:41 | 45.24769 | 5.88977 | 35508 ft | 523 kts | 199° |
| 2026-04-22 18:42 | 45.21241 | 5.87750 | 35967 ft | 521 kts | 198° |
| 2026-04-22 18:42 | 45.17704 | 5.86771 | 36419 ft | 514 kts | 197° |
| 2026-04-22 18:42 | 45.14237 | 5.85612 | 36895 ft | 511 kts | 199° |
| 2026-04-22 18:42 | 45.10742 | 5.84567 | 37372 ft | 516 kts | 195° |
| 2026-04-22 18:43 | 45.07245 | 5.83507 | 37812 ft | 512 kts | 199° |
| 2026-04-22 18:43 | 45.03773 | 5.82361 | 38296 ft | 512 kts | 196° |
| 2026-04-22 18:43 | 45.00277 | 5.81396 | 38725 ft | 511 kts | 198° |
| 2026-04-22 18:43 | 44.96830 | 5.80214 | 38865 ft | 511 kts | 198° |
| 2026-04-22 18:44 | 44.89869 | 5.78115 | 38945 ft | 510 kts | 199° |
| 2026-04-22 18:44 | 44.82952 | 5.76048 | 38973 ft | 509 kts | 199° |
| 2026-04-22 18:45 | 44.76008 | 5.73947 | 38975 ft | 510 kts | 197° |
| 2026-04-22 18:45 | 44.69078 | 5.71803 | 38979 ft | 510 kts | 195° |
| 2026-04-22 18:46 | 44.62172 | 5.69651 | 38984 ft | 510 kts | 195° |
| 2026-04-22 18:46 | 44.55268 | 5.67530 | 38987 ft | 508 kts | 197° |
| 2026-04-22 18:47 | 44.48353 | 5.65455 | 38989 ft | 507 kts | 198° |
| 2026-04-22 18:47 | 44.41445 | 5.63408 | 38996 ft | 506 kts | 199° |
| 2026-04-22 18:48 | 44.34682 | 5.60727 | 39006 ft | 501 kts | 206° |
| 2026-04-22 18:48 | 44.28281 | 5.56949 | 39008 ft | 502 kts | 204° |
| 2026-04-22 18:49 | 44.21845 | 5.53430 | 39007 ft | 499 kts | 207° |
| 2026-04-22 18:49 | 44.15340 | 5.49936 | 39017 ft | 499 kts | 208° |
| 2026-04-22 18:50 | 44.08845 | 5.46453 | 39020 ft | 499 kts | 208° |
| 2026-04-22 18:50 | 44.02360 | 5.42951 | 39020 ft | 500 kts | 206° |
| 2026-04-22 18:51 | 43.95887 | 5.39411 | 39019 ft | 500 kts | 204° |
| 2026-04-22 18:51 | 43.89441 | 5.35867 | 39024 ft | 500 kts | 204° |
| 2026-04-22 18:52 | 43.86194 | 5.34181 | 39026 ft | 497 kts | 207° |
| 2026-04-22 18:52 | 43.83955 | 5.32880 | 39015 ft | 497 kts | 206° |
| 2026-04-22 18:53 | 43.76446 | 5.28844 | 39014 ft | 497 kts | 206° |
| 2026-04-22 18:53 | 43.71015 | 5.26013 | 39019 ft | 497 kts | 206° |
| 2026-04-22 18:54 | 43.64571 | 5.22557 | 39017 ft | 498 kts | 205° |
| 2026-04-22 18:54 | 43.58526 | 5.19263 | 39014 ft | 498 kts | 204° |
| 2026-04-22 18:55 | 43.52083 | 5.15790 | 39012 ft | 498 kts | 205° |
| 2026-04-22 18:55 | 43.45623 | 5.12361 | 38990 ft | 497 kts | 206° |
| 2026-04-22 18:56 | 43.39209 | 5.08795 | 38992 ft | 495 kts | 211° |
| 2026-04-22 18:56 | 43.33401 | 5.03877 | 38988 ft | 487 kts | 222° |
| 2026-04-22 18:57 | 43.27807 | 4.98548 | 38990 ft | 491 kts | 217° |
| 2026-04-22 18:57 | 43.22221 | 4.93208 | 38990 ft | 491 kts | 217° |
| 2026-04-22 18:58 | 43.16614 | 4.87900 | 38981 ft | 491 kts | 217° |
| 2026-04-22 18:58 | 43.11019 | 4.82661 | 38985 ft | 490 kts | 219° |
| 2026-04-22 18:59 | 43.05292 | 4.77554 | 38979 ft | 490 kts | 218° |
| 2026-04-22 18:59 | 42.99314 | 4.72973 | 38981 ft | 494 kts | 211° |
| 2026-04-22 19:00 | 42.93347 | 4.68351 | 38990 ft | 494 kts | 211° |
| 2026-04-22 19:00 | 42.87364 | 4.63787 | 38986 ft | 493 kts | 212° |
| 2026-04-22 19:01 | 42.81364 | 4.59277 | 38980 ft | 492 kts | 214° |
| 2026-04-22 19:01 | 42.75381 | 4.54833 | 38981 ft | 491 kts | 215° |
| 2026-04-22 19:02 | 42.69363 | 4.50359 | 38980 ft | 492 kts | 214° |
| 2026-04-22 19:02 | 42.63355 | 4.45850 | 38977 ft | 494 kts | 212° |
| 2026-04-22 19:03 | 42.57403 | 4.41347 | 38976 ft | 495 kts | 211° |
| 2026-04-22 19:03 | 42.51424 | 4.36842 | 38976 ft | 495 kts | 212° |
| 2026-04-22 19:04 | 42.45385 | 4.32357 | 38977 ft | 494 kts | 213° |
| 2026-04-22 19:04 | 42.39402 | 4.27963 | 38972 ft | 494 kts | 214° |
| 2026-04-22 19:05 | 42.33397 | 4.23544 | 38970 ft | 495 kts | 213° |
| 2026-04-22 19:05 | 42.27361 | 4.19059 | 38965 ft | 496 kts | 212° |
| 2026-04-22 19:06 | 42.21325 | 4.14562 | 38960 ft | 497 kts | 211° |
| 2026-04-22 19:07 | 42.12257 | 4.07949 | 38960 ft | 496 kts | 212° |
| 2026-04-22 19:07 | 42.06208 | 4.03472 | 38959 ft | 497 kts | 211° |
| 2026-04-22 19:08 | 42.00149 | 3.99001 | 38953 ft | 497 kts | 211° |
| 2026-04-22 19:08 | 41.97103 | 3.96858 | 38952 ft | 483 kts | 212° |
| 2026-04-22 19:08 | 41.94205 | 3.94812 | 38954 ft | 461 kts | 207° |
| 2026-04-22 19:09 | 41.88176 | 3.92205 | 38957 ft | 456 kts | 193° |
| 2026-04-22 19:09 | 41.81852 | 3.91023 | 38951 ft | 458 kts | 195° |
| 2026-04-22 19:10 | 41.75572 | 3.89521 | 38944 ft | 460 kts | 191° |
| 2026-04-22 19:10 | 41.69296 | 3.88005 | 38943 ft | 459 kts | 191° |
| 2026-04-22 19:11 | 41.63017 | 3.86523 | 38938 ft | 458 kts | 192° |
| 2026-04-22 19:11 | 41.56778 | 3.85123 | 38938 ft | 457 kts | 194° |
| 2026-04-22 19:12 | 41.50589 | 3.83772 | 38938 ft | 457 kts | 195° |
| 2026-04-22 19:12 | 41.44310 | 3.82355 | 38932 ft | 457 kts | 193° |
| 2026-04-22 19:13 | 41.38058 | 3.80881 | 38933 ft | 457 kts | 191° |
| 2026-04-22 19:13 | 41.31791 | 3.79396 | 38611 ft | 462 kts | 191° |
| 2026-04-22 19:13 | 41.28621 | 3.78775 | 38093 ft | 458 kts | 193° |
| 2026-04-22 19:14 | 41.25507 | 3.77968 | 37590 ft | 452 kts | 193° |
| 2026-04-22 19:14 | 41.22420 | 3.77332 | 37101 ft | 448 kts | 191° |
| 2026-04-22 19:14 | 41.19370 | 3.76626 | 36624 ft | 441 kts | 194° |
| 2026-04-22 19:14 | 41.16313 | 3.76274 | 36169 ft | 442 kts | 180° |
| 2026-04-22 19:15 | 41.14282 | 3.76488 | 35854 ft | 441 kts | 175° |
| 2026-04-22 19:15 | 41.10281 | 3.77348 | 35253 ft | 439 kts | 167° |
| 2026-04-22 19:15 | 41.07362 | 3.78535 | 34806 ft | 437 kts | 163° |
| 2026-04-22 19:15 | 41.04472 | 3.79705 | 34372 ft | 432 kts | 168° |
| 2026-04-22 19:16 | 41.01561 | 3.80610 | 33919 ft | 428 kts | 167° |
| 2026-04-22 19:16 | 40.98825 | 3.81695 | 33447 ft | 425 kts | 165° |
| 2026-04-22 19:16 | 40.95986 | 3.82707 | 32972 ft | 420 kts | 169° |
| 2026-04-22 19:16 | 40.93168 | 3.83667 | 32488 ft | 416 kts | 165° |
| 2026-04-22 19:17 | 40.90407 | 3.84761 | 32020 ft | 412 kts | 167° |
| 2026-04-22 19:17 | 40.87637 | 3.85671 | 31558 ft | 408 kts | 168° |
| 2026-04-22 19:17 | 40.84907 | 3.86690 | 31116 ft | 406 kts | 165° |
| 2026-04-22 19:17 | 40.82199 | 3.87692 | 30667 ft | 402 kts | 168° |
| 2026-04-22 19:18 | 40.79530 | 3.88585 | 30240 ft | 399 kts | 167° |
| 2026-04-22 19:18 | 40.76864 | 3.89604 | 29748 ft | 396 kts | 166° |
| 2026-04-22 19:18 | 40.74209 | 3.90539 | 29237 ft | 393 kts | 168° |
| 2026-04-22 19:18 | 40.71570 | 3.91455 | 28745 ft | 390 kts | 166° |
| 2026-04-22 19:19 | 40.68969 | 3.92439 | 28258 ft | 388 kts | 167° |
| 2026-04-22 19:19 | 40.66369 | 3.93337 | 27781 ft | 385 kts | 168° |
| 2026-04-22 19:19 | 40.63792 | 3.94252 | 27304 ft | 383 kts | 167° |
| 2026-04-22 19:19 | 40.61234 | 3.95202 | 26837 ft | 380 kts | 168° |
| 2026-04-22 19:20 | 40.58688 | 3.96077 | 26387 ft | 377 kts | 168° |
| 2026-04-22 19:20 | 40.56157 | 3.96989 | 25937 ft | 375 kts | 167° |
| 2026-04-22 19:20 | 40.53646 | 3.97904 | 25486 ft | 373 kts | 168° |
| 2026-04-22 19:20 | 40.51147 | 3.98762 | 25055 ft | 370 kts | 168° |
| 2026-04-22 19:21 | 40.48668 | 3.99664 | 24628 ft | 369 kts | 167° |
| 2026-04-22 19:21 | 40.46199 | 4.00556 | 24204 ft | 366 kts | 168° |
| 2026-04-22 19:21 | 40.43776 | 4.01396 | 23792 ft | 364 kts | 168° |
| 2026-04-22 19:21 | 40.41333 | 4.02278 | 23332 ft | 362 kts | 167° |
| 2026-04-22 19:22 | 40.38912 | 4.03149 | 22844 ft | 360 kts | 168° |
| 2026-04-22 19:22 | 40.36506 | 4.04024 | 22363 ft | 357 kts | 167° |
| 2026-04-22 19:22 | 40.34086 | 4.04376 | 21905 ft | 345 kts | 192° |
| 2026-04-22 19:22 | 40.31893 | 4.03338 | 21447 ft | 330 kts | 220° |
| 2026-04-22 19:23 | 40.30405 | 4.01167 | 20991 ft | 316 kts | 249° |
| 2026-04-22 19:23 | 40.29877 | 3.98448 | 20534 ft | 307 kts | 267° |
| 2026-04-22 19:23 | 40.29738 | 3.95678 | 20078 ft | 303 kts | 270° |
| 2026-04-22 19:23 | 40.29683 | 3.92935 | 19644 ft | 300 kts | 271° |
| 2026-04-22 19:24 | 40.29661 | 3.90251 | 19212 ft | 297 kts | 272° |
| 2026-04-22 19:24 | 40.29653 | 3.87518 | 18785 ft | 295 kts | 272° |
| 2026-04-22 19:24 | 40.29654 | 3.84871 | 18373 ft | 293 kts | 272° |
| 2026-04-22 19:24 | 40.29658 | 3.82204 | 17872 ft | 291 kts | 272° |
| 2026-04-22 19:25 | 40.29663 | 3.79572 | 17417 ft | 288 kts | 272° |
| 2026-04-22 19:25 | 40.29668 | 3.76947 | 16946 ft | 286 kts | 272° |
| 2026-04-22 19:25 | 40.29674 | 3.74357 | 16485 ft | 284 kts | 272° |
| 2026-04-22 19:25 | 40.30040 | 3.71868 | 16039 ft | 278 kts | 298° |
| 2026-04-22 19:26 | 40.31379 | 3.70078 | 15603 ft | 282 kts | 330° |
| 2026-04-22 19:26 | 40.33314 | 3.69578 | 15162 ft | 293 kts | 2° |
| 2026-04-22 19:26 | 40.35203 | 3.70550 | 14729 ft | 306 kts | 33° |
| 2026-04-22 19:26 | 40.36519 | 3.72773 | 14300 ft | 317 kts | 65° |
| 2026-04-22 19:27 | 40.36891 | 3.75631 | 13866 ft | 322 kts | 87° |
| 2026-04-22 19:27 | 40.36838 | 3.78573 | 13387 ft | 321 kts | 91° |
| 2026-04-22 19:27 | 40.36707 | 3.81475 | 12911 ft | 317 kts | 92° |
| 2026-04-22 19:27 | 40.36551 | 3.84345 | 12456 ft | 314 kts | 92° |
| 2026-04-22 19:28 | 40.36387 | 3.87196 | 12009 ft | 311 kts | 92° |
| 2026-04-22 19:28 | 40.36219 | 3.90017 | 11552 ft | 309 kts | 92° |
| 2026-04-22 19:28 | 40.36051 | 3.92818 | 11112 ft | 307 kts | 92° |
| 2026-04-22 19:28 | 40.35883 | 3.95597 | 10674 ft | 304 kts | 92° |
| 2026-04-22 19:29 | 40.35717 | 3.98355 | 10244 ft | 302 kts | 92° |
| 2026-04-22 19:29 | 40.35553 | 4.01089 | 9810 ft | 300 kts | 92° |
| 2026-04-22 19:29 | 40.35393 | 4.03800 | 9346 ft | 297 kts | 92° |
| 2026-04-22 19:29 | 40.34961 | 4.06423 | 8895 ft | 295 kts | 117° |
| 2026-04-22 19:30 | 40.34165 | 4.07853 | 8599 ft | 293 kts | 139° |
| 2026-04-22 19:30 | 40.31826 | 4.09468 | 8002 ft | 287 kts | 162° |
| 2026-04-22 19:30 | 40.29922 | 4.10139 | 7561 ft | 281 kts | 175° |
| 2026-04-22 19:30 | 40.27993 | 4.10344 | 7126 ft | 277 kts | 179° |
| 2026-04-22 19:31 | 40.26079 | 4.10451 | 6697 ft | 273 kts | 180° |
| 2026-04-22 19:31 | 40.24187 | 4.10595 | 6263 ft | 272 kts | 175° |
| 2026-04-22 19:31 | 40.22326 | 4.11003 | 5828 ft | 271 kts | 171° |
| 2026-04-22 19:31 | 40.20469 | 4.11422 | 5365 ft | 270 kts | 174° |
| 2026-04-22 19:32 | 40.18602 | 4.11721 | 4931 ft | 269 kts | 169° |
| 2026-04-22 19:32 | 40.16980 | 4.12790 | 4497 ft | 262 kts | 136° |
| 2026-04-22 19:32 | 40.15900 | 4.14632 | 4043 ft | 250 kts | 123° |
| 2026-04-22 19:32 | 40.14947 | 4.16471 | 3597 ft | 239 kts | 123° |
| 2026-04-22 19:33 | 40.14011 | 4.18181 | 3234 ft | 219 kts | 125° |
| 2026-04-22 19:33 | 40.13127 | 4.19675 | 3061 ft | 201 kts | 126° |
| 2026-04-22 19:33 | 40.12252 | 4.21096 | 2988 ft | 191 kts | 128° |
| 2026-04-22 19:33 | 40.11428 | 4.22196 | 2949 ft | 161 kts | 136° |
| 2026-04-22 19:34 | 40.10588 | 4.23176 | 2932 ft | 161 kts | 135° |
| 2026-04-22 19:34 | 40.09745 | 4.24134 | 2922 ft | 162 kts | 149° |
| 2026-04-22 19:34 | 40.08640 | 4.24380 | 2919 ft | 162 kts | 179° |
| 2026-04-22 19:34 | 40.07504 | 4.24374 | 2912 ft | 162 kts | 180° |
| 2026-04-22 19:35 | 40.06276 | 4.24328 | 2913 ft | 196 kts | 182° |
| 2026-04-22 19:35 | 40.04833 | 4.24217 | 2914 ft | 209 kts | 184° |
| 2026-04-22 19:35 | 40.03973 | 4.24131 | 2915 ft | 168 kts | 184° |
| 2026-04-22 19:35 | 40.02495 | 4.24097 | 2966 ft | 165 kts | 174° |
| 2026-04-22 19:36 | 40.01329 | 4.24284 | 3078 ft | 171 kts | 173° |
| 2026-04-22 19:36 | 40.00174 | 4.24347 | 3149 ft | 159 kts | 178° |
| 2026-04-22 19:36 | 39.99093 | 4.24374 | 3054 ft | 154 kts | 180° |
| 2026-04-22 19:36 | 39.97976 | 4.24214 | 2653 ft | 168 kts | 189° |
| 2026-04-22 19:37 | 39.96810 | 4.23935 | 2266 ft | 172 kts | 189° |
| 2026-04-22 19:37 | 39.95640 | 4.23681 | 1908 ft | 169 kts | 185° |
| 2026-04-22 19:37 | 39.94874 | 4.23551 | 1721 ft | 165 kts | 185° |
| 2026-04-22 19:37 | 39.93478 | 4.23260 | 1599 ft | 149 kts | 188° |
| 2026-04-22 19:38 | 39.92492 | 4.23046 | 1515 ft | 143 kts | 185° |
| 2026-04-22 19:38 | 39.91496 | 4.22880 | 1291 ft | 143 kts | 181° |
| 2026-04-22 19:38 | 39.90835 | 4.22767 | 1161 ft | 146 kts | 185° |
| 2026-04-22 19:38 | 39.89790 | 4.22550 | 838 ft | 155 kts | 188° |
| 2026-04-22 19:39 | 39.88731 | 4.22342 | 647 ft | 153 kts | 187° |
| 2026-04-22 19:39 | 39.87687 | 4.22154 | 472 ft | 150 kts | 187° |
| 2026-04-22 19:39 | 39.86718 | 4.21960 | 304 ft | 116 kts | 189° |
| 2026-04-22 19:39 | 39.86157 | 4.21845 | 303 ft | 27 kts | 189° |
| 2026-04-22 19:40 | 39.86051 | 4.21820 | 303 ft | 17 kts | 190° |
| 2026-04-22 19:40 | 39.85916 | 4.21793 | 303 ft | 34 kts | 188° |
| 2026-04-22 19:40 | 39.85732 | 4.21759 | 300 ft | 22 kts | 188° |
| 2026-04-22 19:40 | 39.85582 | 4.21770 | 295 ft | 21 kts | 162° |
| 2026-04-22 19:41 | 39.85438 | 4.21833 | 284 ft | 20 kts | 159° |
| 2026-04-22 19:41 | 39.85417 | 4.21913 | 288 ft | 6 kts | 52° |
| 2026-04-22 19:41 | 39.85444 | 4.21932 | 284 ft | 5 kts | 19° |
| 2026-04-22 19:41 | 39.85486 | 4.21943 | 285 ft | 8 kts | 14° |
| 2026-04-22 19:42 | 39.85555 | 4.21966 | 287 ft | 12 kts | 14° |
| 2026-04-22 19:42 | 39.85643 | 4.21988 | 292 ft | 14 kts | 5° |
| 2026-04-22 19:42 | 39.85748 | 4.22001 | 293 ft | 16 kts | 5° |
| 2026-04-22 19:42 | 39.85872 | 4.22025 | 296 ft | 19 kts | 11° |
| 2026-04-22 19:43 | 39.86114 | 4.22073 | 295 ft | 15 kts | 9° |
| 2026-04-22 19:43 | 39.86187 | 4.22119 | 294 ft | 8 kts | 66° |
| 2026-04-22 19:43 | 39.86188 | 4.22181 | 291 ft | 11 kts | 94° |
| 2026-04-22 19:44 | 39.86234 | 4.22268 | 290 ft | 14 kts | 11° |
| 2026-04-22 19:44 | 39.86330 | 4.22288 | 289 ft | 13 kts | 9° |
| 2026-04-22 19:44 | 39.86408 | 4.22304 | 289 ft | 10 kts | 8° |
| 2026-04-22 19:44 | 39.86466 | 4.22320 | 291 ft | 6 kts | 24° |
| 2026-04-22 19:45 | 39.86476 | 4.22339 | 291 ft | 5 kts | 63° |
| 2026-04-22 19:45 | 39.86477 | 4.22351 | 291 ft | 0 kts | 98° |
| 2026-04-22 19:45 | 39.86470 | 4.22393 | 287 ft | 5 kts | 100° |
| 2026-04-22 19:45 | 39.86467 | 4.22413 | 291 ft | 0 kts | 100° |
| 2026-04-22 19:46 | 39.86467 | 4.22416 | 290 ft | 0 kts | 100° |